Time;durP1;ratioP1;P1;durP2;ratioP2;P2;SDS_P1;SDS_P2;PMS_P1;PMS_P2;Temp;Humidity;BMP_temperature;BMP_pressure;BME280_temperature;BME280_humidity;BME280_pressure;Samples;Min_cycle;Max_cycle;Signal;HPM_P1;HPM_P2
2023/03/07 00:00:28;;;;;;;7.55;5.47;;;;;;;;;;10369773;28;20030;-58
2023/03/07 00:05:29;;;;;;;7.88;5.30;;;;;;;;;;10369613;28;20307;-57
2023/03/07 00:10:30;;;;;;;10.02;6.07;;;;;;;;;;10369449;28;20462;-55
2023/03/07 00:15:30;;;;;;;9.68;5.70;;;;;;;;;;10368723;28;20034;-57
2023/03/07 00:20:31;;;;;;;12.18;5.18;;;;;;;;;;10369520;28;20033;-56
2023/03/07 00:25:31;;;;;;;11.18;5.70;;;;;;;;;;10369294;28;20224;-56
2023/03/07 00:30:32;;;;;;;8.88;5.22;;;;;;;;;;10368459;28;20021;-55
2023/03/07 00:35:32;;;;;;;6.97;5.15;;;;;;;;;;10368310;28;20378;-57
2023/03/07 00:40:33;;;;;;;8.13;5.22;;;;;;;;;;10368026;28;20389;-57
2023/03/07 00:45:34;;;;;;;10.02;5.32;;;;;;;;;;10368160;28;20056;-57
2023/03/07 00:50:34;;;;;;;11.77;5.40;;;;;;;;;;10368364;28;20030;-57
2023/03/07 00:55:35;;;;;;;10.43;5.18;;;;;;;;;;10367769;28;20037;-56
2023/03/07 01:00:35;;;;;;;9.48;5.80;;;;;;;;;;10372841;28;20038;-56
2023/03/07 01:05:39;;;;;;;7.25;5.50;;;;;;;;;;10375865;28;20029;-57
2023/03/07 01:10:40;;;;;;;8.05;5.07;;;;;;;;;;10375898;28;20088;-55
2023/03/07 01:15:41;;;;;;;11.75;5.05;;;;;;;;;;10375586;28;20033;-57
2023/03/07 01:20:42;;;;;;;10.32;5.75;;;;;;;;;;10375935;28;20041;-56
2023/03/07 01:25:42;;;;;;;7.50;5.13;;;;;;;;;;10375194;28;20064;-55
2023/03/07 01:30:43;;;;;;;9.07;5.47;;;;;;;;;;10374977;28;20038;-57
2023/03/07 01:35:44;;;;;;;8.65;5.20;;;;;;;;;;10374703;28;20026;-56
2023/03/07 01:40:44;;;;;;;12.05;5.30;;;;;;;;;;10374919;28;20045;-58
2023/03/07 01:45:45;;;;;;;7.45;5.00;;;;;;;;;;10374425;28;20046;-58
2023/03/07 01:50:46;;;;;;;6.22;4.75;;;;;;;;;;10374207;28;20075;-57
2023/03/07 01:55:47;;;;;;;11.32;5.15;;;;;;;;;;10374037;28;20034;-58
2023/03/07 02:00:47;;;;;;;11.57;4.90;;;;;;;;;;10373963;28;20030;-57
2023/03/07 02:06:01;;;;;;;5.72;4.95;;;;;;;;;;10374267;28;20030;-58
2023/03/07 02:11:02;;;;;;;11.00;5.75;;;;;;;;;;10371389;28;20069;-58
2023/03/07 02:16:04;;;;;;;7.10;4.72;;;;;;;;;;10372071;28;20065;-58
2023/03/07 02:21:36;;;;;;;7.38;4.70;;;;;;;;;;10356236;28;20038;-52
2023/03/07 02:26:42;;;;;;;6.50;4.93;;;;;;;;;;10372589;28;20032;-57
2023/03/07 02:31:43;;;;;;;7.25;5.07;;;;;;;;;;10373145;28;20033;-58
2023/03/07 02:36:44;;;;;;;8.25;5.18;;;;;;;;;;10372742;28;20030;-55
2023/03/07 02:41:46;;;;;;;6.63;4.68;;;;;;;;;;10372562;28;20049;-57
2023/03/07 02:46:46;;;;;;;10.00;5.13;;;;;;;;;;10370833;28;20089;-56
2023/03/07 02:51:47;;;;;;;8.48;5.13;;;;;;;;;;10371865;28;20030;-55
2023/03/07 02:56:47;;;;;;;6.07;4.90;;;;;;;;;;10371868;28;20474;-56
2023/03/07 03:01:48;;;;;;;9.35;4.80;;;;;;;;;;10371404;28;20470;-56
2023/03/07 03:06:49;;;;;;;8.82;4.30;;;;;;;;;;10371802;28;20032;-56
2023/03/07 03:11:50;;;;;;;7.82;5.07;;;;;;;;;;10371490;28;20030;-58
2023/03/07 03:16:53;;;;;;;6.28;4.18;;;;;;;;;;10371299;28;20026;-58
2023/03/07 03:21:54;;;;;;;7.60;5.75;;;;;;;;;;10370517;28;20462;-58
2023/03/07 03:26:59;;;;;;;7.53;4.75;;;;;;;;;;10370475;28;20022;-56
2023/03/07 03:32:00;;;;;;;8.32;5.05;;;;;;;;;;10370302;28;20501;-57
2023/03/07 03:37:01;;;;;;;7.47;5.05;;;;;;;;;;10370542;28;20225;-58
2023/03/07 03:42:02;;;;;;;6.82;4.97;;;;;;;;;;10370433;28;20041;-58
2023/03/07 03:47:03;;;;;;;6.20;4.47;;;;;;;;;;10369701;28;20050;-58
2023/03/07 03:52:04;;;;;;;11.18;5.07;;;;;;;;;;10369340;28;20030;-58
2023/03/07 03:57:04;;;;;;;7.15;5.15;;;;;;;;;;10369369;28;20042;-58
2023/03/07 04:02:05;;;;;;;8.57;5.43;;;;;;;;;;10369883;28;20026;-57
2023/03/07 04:07:05;;;;;;;11.00;5.63;;;;;;;;;;10369098;28;20190;-55
2023/03/07 04:12:06;;;;;;;10.93;5.47;;;;;;;;;;10368805;28;20026;-56
2023/03/07 04:17:07;;;;;;;8.10;5.53;;;;;;;;;;10368841;28;20025;-57
2023/03/07 04:22:08;;;;;;;8.85;5.80;;;;;;;;;;10368589;28;20030;-54
2023/03/07 04:27:08;;;;;;;9.90;5.13;;;;;;;;;;10368502;28;20367;-56
2023/03/07 04:32:09;;;;;;;5.82;4.75;;;;;;;;;;10368001;28;20026;-56
2023/03/07 04:37:09;;;;;;;10.48;5.53;;;;;;;;;;10368329;28;20030;-53
2023/03/07 04:42:10;;;;;;;7.85;5.55;;;;;;;;;;10367973;28;20295;-56
2023/03/07 04:47:10;;;;;;;5.57;5.07;;;;;;;;;;10367811;28;20042;-58
2023/03/07 04:52:11;;;;;;;8.30;4.93;;;;;;;;;;10367611;28;20033;-57
2023/03/07 04:57:12;;;;;;;7.00;4.93;;;;;;;;;;10367798;28;20030;-57
2023/03/07 05:02:12;;;;;;;6.47;4.82;;;;;;;;;;10368121;28;20072;-57
2023/03/07 05:07:13;;;;;;;5.80;5.03;;;;;;;;;;10367389;28;20025;-57
2023/03/07 05:12:13;;;;;;;6.55;5.30;;;;;;;;;;10367735;28;20041;-58
2023/03/07 05:17:14;;;;;;;6.78;4.88;;;;;;;;;;10367881;28;20088;-57
2023/03/07 05:22:15;;;;;;;6.15;4.97;;;;;;;;;;10367729;28;20373;-57
2023/03/07 05:27:15;;;;;;;6.22;4.20;;;;;;;;;;10367037;28;20393;-57
2023/03/07 05:32:16;;;;;;;5.57;4.90;;;;;;;;;;10367070;28;20477;-58
2023/03/07 05:37:16;;;;;;;5.47;4.68;;;;;;;;;;10367028;28;20478;-59
2023/03/07 05:42:17;;;;;;;7.68;4.65;;;;;;;;;;10366858;28;20022;-58
2023/03/07 05:47:18;;;;;;;5.88;4.72;;;;;;;;;;10372460;28;20042;-58
2023/03/07 05:52:19;;;;;;;6.47;4.63;;;;;;;;;;10374365;28;20416;-57
2023/03/07 05:57:21;;;;;;;7.10;4.90;;;;;;;;;;10374240;28;20032;-58
2023/03/07 06:02:21;;;;;;;6.30;4.70;;;;;;;;;;10374321;28;20034;-59
2023/03/07 06:07:22;;;;;;;6.63;4.97;;;;;;;;;;10374669;28;20080;-57
2023/03/07 06:12:23;;;;;;;8.13;4.45;;;;;;;;;;10373311;28;20030;-55
2023/03/07 06:17:23;;;;;;;7.07;4.75;;;;;;;;;;10373507;28;20041;-54
2023/03/07 06:22:24;;;;;;;5.22;4.53;;;;;;;;;;10373377;28;20599;-56
2023/03/07 06:27:24;;;;;;;5.32;4.57;;;;;;;;;;10373685;28;20057;-58
2023/03/07 06:32:25;;;;;;;7.18;4.97;;;;;;;;;;10372777;28;20029;-59
2023/03/07 06:37:25;;;;;;;6.22;4.55;;;;;;;;;;10373070;28;20030;-55
2023/03/07 06:42:26;;;;;;;7.53;5.55;;;;;;;;;;10370577;28;20497;-53
2023/03/07 06:47:26;;;;;;;16.27;6.70;;;;;;;;;;10372075;28;20613;-54
2023/03/07 06:52:27;;;;;;;13.25;6.28;;;;;;;;;;10371129;28;20045;-54
2023/03/07 06:57:28;;;;;;;13.18;7.43;;;;;;;;;;10371320;28;20037;-51
2023/03/07 07:02:28;;;;;;;12.13;7.93;;;;;;;;;;10371380;28;20080;-54
2023/03/07 07:07:29;;;;;;;17.42;8.65;;;;;;;;;;10371463;28;20033;-56
2023/03/07 07:12:30;;;;;;;17.23;8.48;;;;;;;;;;10369836;28;20026;-53
2023/03/07 07:17:34;;;;;;;17.45;9.20;;;;;;;;;;10369275;28;20041;-56
2023/03/07 07:22:35;;;;;;;17.13;9.82;;;;;;;;;;10371358;28;20026;-58
2023/03/07 07:27:35;;;;;;;22.17;10.25;;;;;;;;;;10370999;28;20481;-55
2023/03/07 07:32:36;;;;;;;16.23;9.73;;;;;;;;;;10370658;28;20397;-50
2023/03/07 07:37:36;;;;;;;17.58;10.48;;;;;;;;;;10371190;28;20061;-52
2023/03/07 07:42:37;;;;;;;16.73;11.25;;;;;;;;;;10369835;28;20385;-52
2023/03/07 07:47:38;;;;;;;19.52;10.40;;;;;;;;;;10370077;28;20029;-51
2023/03/07 07:52:38;;;;;;;15.55;10.30;;;;;;;;;;10369892;28;20030;-50
2023/03/07 07:57:40;;;;;;;17.13;11.18;;;;;;;;;;10369530;28;20018;-49
2023/03/07 08:02:40;;;;;;;15.10;10.80;;;;;;;;;;10369621;28;20113;-50
2023/03/07 08:07:42;;;;;;;19.38;11.32;;;;;;;;;;10368182;28;20036;-52
2023/03/07 08:12:44;;;;;;;15.27;10.65;;;;;;;;;;10368763;28;20038;-56
2023/03/07 08:17:45;;;;;;;16.73;10.70;;;;;;;;;;10368042;28;20042;-49
2023/03/07 08:22:48;;;;;;;17.25;10.98;;;;;;;;;;10368554;28;20030;-55
2023/03/07 08:27:54;;;;;;;15.30;10.70;;;;;;;;;;10368837;28;20030;-56
2023/03/07 08:32:55;;;;;;;16.85;10.73;;;;;;;;;;10368772;28;20060;-57
2023/03/07 08:37:58;;;;;;;15.10;10.43;;;;;;;;;;10368295;28;20026;-54
2023/03/07 08:42:59;;;;;;;16.10;11.00;;;;;;;;;;10368791;28;20079;-58
2023/03/07 08:47:59;;;;;;;14.70;10.57;;;;;;;;;;10368225;28;20060;-57
2023/03/07 08:53:00;;;;;;;16.23;11.20;;;;;;;;;;10367847;28;20038;-58
2023/03/07 08:58:01;;;;;;;18.17;11.25;;;;;;;;;;10367797;28;20030;-53
2023/03/07 09:03:02;;;;;;;19.83;12.07;;;;;;;;;;10368183;28;20036;-55
2023/03/07 09:08:04;;;;;;;17.17;11.35;;;;;;;;;;10367550;28;20041;-58
2023/03/07 09:13:05;;;;;;;19.45;10.68;;;;;;;;;;10367373;28;20030;-52
2023/03/07 09:18:07;;;;;;;14.63;10.63;;;;;;;;;;10367962;28;20026;-57
2023/03/07 09:23:09;;;;;;;16.48;11.13;;;;;;;;;;10375155;28;20034;-53
2023/03/07 09:28:10;;;;;;;13.10;10.15;;;;;;;;;;10376174;28;20022;-56
2023/03/07 09:33:10;;;;;;;16.88;10.38;;;;;;;;;;10376027;28;20026;-55
2023/03/07 09:38:11;;;;;;;15.32;10.35;;;;;;;;;;10375550;28;20026;-58
2023/03/07 09:43:24;;;;;;;14.40;11.00;;;;;;;;;;10374519;28;20049;-56
2023/03/07 09:49:05;;;;;;;16.35;10.68;;;;;;;;;;10374642;28;20373;-54
2023/03/07 09:54:49;;;;;;;15.35;10.40;;;;;;;;;;10374135;28;20445;-56
2023/03/07 09:59:55;;;;;;;17.20;10.93;;;;;;;;;;10340130;28;20038;-51
2023/03/07 10:05:39;;;;;;;16.25;10.15;;;;;;;;;;10372747;28;20132;-55
2023/03/07 10:11:02;;;;;;;11.63;9.07;;;;;;;;;;10373427;28;20022;-57
2023/03/07 10:16:40;;;;;;;18.48;11.07;;;;;;;;;;10352065;28;20078;-56
2023/03/07 10:22:08;;;;;;;13.43;9.80;;;;;;;;;;10371827;28;20032;-55
2023/03/07 10:27:13;;;;;;;15.13;10.15;;;;;;;;;;10371680;28;20397;-53
2023/03/07 10:32:21;;;;;;;13.30;10.18;;;;;;;;;;10371632;28;20388;-55
2023/03/07 10:37:40;;;;;;;14.05;10.20;;;;;;;;;;10373221;28;20030;-54
2023/03/07 10:42:41;;;;;;;17.98;11.00;;;;;;;;;;10371062;28;20042;-55
2023/03/07 10:47:42;;;;;;;13.88;9.80;;;;;;;;;;10372373;28;20034;-57
2023/03/07 10:52:52;;;;;;;12.85;9.55;;;;;;;;;;10371890;28;20030;-56
2023/03/07 10:57:52;;;;;;;15.80;9.93;;;;;;;;;;10371518;28;20064;-53
2023/03/07 11:02:55;;;;;;;13.93;10.43;;;;;;;;;;10371740;28;20048;-55
2023/03/07 11:07:56;;;;;;;12.40;9.10;;;;;;;;;;10370773;28;20108;-53
2023/03/07 11:12:57;;;;;;;13.52;9.35;;;;;;;;;;10371258;28;20033;-55
2023/03/07 11:17:58;;;;;;;18.45;10.68;;;;;;;;;;10371068;28;20021;-53
2023/03/07 11:23:39;;;;;;;14.35;9.77;;;;;;;;;;10369744;28;20034;-54
2023/03/07 11:28:40;;;;;;;12.52;8.77;;;;;;;;;;10368682;28;20445;-54
2023/03/07 11:33:52;;;;;;;11.63;9.13;;;;;;;;;;10370326;28;20040;-53
2023/03/07 11:39:11;;;;;;;14.32;9.68;;;;;;;;;;10370397;28;20056;-50
2023/03/07 11:44:33;;;;;;;13.20;9.77;;;;;;;;;;10369764;28;20124;-50
2023/03/07 11:50:05;;;;;;;12.02;8.55;;;;;;;;;;10370574;28;20038;-49
2023/03/07 11:55:35;;;;;;;13.23;9.63;;;;;;;;;;10368527;28;20377;-50
2023/03/07 12:00:55;;;;;;;12.55;9.05;;;;;;;;;;10368572;28;20026;-50
2023/03/07 12:06:48;;;;;;;11.23;8.90;;;;;;;;;;10369835;28;20283;-51
2023/03/07 12:12:12;;;;;;;15.07;9.52;;;;;;;;;;10369489;28;20037;-53
2023/03/07 12:17:41;;;;;;;12.65;8.70;;;;;;;;;;10369344;28;20030;-49
2023/03/07 12:22:47;;;;;;;15.05;8.93;;;;;;;;;;10368679;28;20072;-50
2023/03/07 12:28:20;;;;;;;11.25;8.68;;;;;;;;;;10369435;28;20061;-52
2023/03/07 12:34:10;;;;;;;13.73;8.65;;;;;;;;;;10368914;28;20061;-50
2023/03/07 12:39:39;;;;;;;11.48;9.18;;;;;;;;;;10367502;28;20050;-51
2023/03/07 12:44:50;;;;;;;10.05;7.55;;;;;;;;;;10366715;28;20049;-51
2023/03/07 12:50:05;;;;;;;12.57;7.93;;;;;;;;;;10366378;28;20034;-50
2023/03/07 12:55:40;;;;;;;10.85;7.97;;;;;;;;;;10365791;28;20037;-53
2023/03/07 13:00:48;;;;;;;11.27;8.50;;;;;;;;;;10366788;28;20109;-52
2023/03/07 13:05:49;;;;;;;;;;;;;;;;;;10367483;28;20112;-51
2023/03/07 13:10:50;;;;;;;10.07;7.78;;;;;;;;;;10367340;28;20025;-55
2023/03/07 13:16:03;;;;;;;10.75;8.40;;;;;;;;;;10366799;28;20030;-53
2023/03/07 13:21:32;;;;;;;11.75;8.82;;;;;;;;;;10366189;28;20504;-56
2023/03/07 13:26:33;;;;;;;10.35;8.25;;;;;;;;;;10366754;28;20030;-57
2023/03/07 13:31:38;;;;;;;11.70;8.18;;;;;;;;;;10366822;28;20034;-52
2023/03/07 13:36:38;;;;;;;12.98;7.90;;;;;;;;;;10367402;28;20520;-50
2023/03/07 13:41:49;;;;;;;13.77;7.93;;;;;;;;;;10367490;28;20088;-54
2023/03/07 13:46:52;;;;;;;8.80;7.40;;;;;;;;;;10366777;28;20053;-52
2023/03/07 13:52:44;;;;;;;10.05;7.38;;;;;;;;;;10365960;28;20064;-51
2023/03/07 13:57:46;;;;;;;10.32;7.20;;;;;;;;;;10343859;28;20037;-53
2023/03/07 14:02:48;;;;;;;11.57;7.78;;;;;;;;;;10365378;28;20493;-54
2023/03/07 14:07:50;;;;;;;9.77;7.63;;;;;;;;;;10370238;28;20158;-54
2023/03/07 14:13:14;;;;;;;9.73;7.20;;;;;;;;;;10373982;28;20022;-55
2023/03/07 14:18:33;;;;;;;11.35;7.47;;;;;;;;;;10373502;28;20045;-55
2023/03/07 14:24:33;;;;;;;10.02;7.38;;;;;;;;;;10372934;28;20378;-55
2023/03/07 14:29:34;;;;;;;9.70;7.13;;;;;;;;;;10350232;28;20428;-57
2023/03/07 14:34:35;;;;;;;10.68;6.95;;;;;;;;;;10371298;28;20084;-54
2023/03/07 14:39:55;;;;;;;10.70;7.70;;;;;;;;;;10372907;28;20477;-56
2023/03/07 14:45:24;;;;;;;7.72;6.05;;;;;;;;;;10372327;28;20061;-58
2023/03/07 14:50:27;;;;;;;10.50;7.07;;;;;;;;;;10372164;28;20422;-57
2023/03/07 14:55:37;;;;;;;9.90;7.18;;;;;;;;;;10371775;28;20030;-57
2023/03/07 15:00:38;;;;;;;9.95;6.75;;;;;;;;;;10371087;28;20079;-54
2023/03/07 15:05:54;;;;;;;10.57;7.13;;;;;;;;;;10371497;28;20018;-57
2023/03/07 15:11:34;;;;;;;10.45;6.60;;;;;;;;;;10371768;28;20041;-57
2023/03/07 15:16:47;;;;;;;8.20;6.82;;;;;;;;;;10370658;28;20022;-54
2023/03/07 15:21:54;;;;;;;9.80;6.53;;;;;;;;;;10371822;28;20033;-58
2023/03/07 15:26:55;;;;;;;9.75;6.75;;;;;;;;;;10369646;28;20030;-58
2023/03/07 15:32:02;;;;;;;9.77;6.75;;;;;;;;;;10369749;28;20030;-54
2023/03/07 15:37:28;;;;;;;7.65;6.30;;;;;;;;;;10369562;28;20076;-50
2023/03/07 15:42:29;;;;;;;8.75;6.72;;;;;;;;;;10370056;28;20022;-51
2023/03/07 15:47:30;;;;;;;7.68;6.07;;;;;;;;;;10370620;28;20033;-53
2023/03/07 15:52:37;;;;;;;11.43;6.88;;;;;;;;;;10369596;28;20040;-50
2023/03/07 15:57:59;;;;;;;9.63;6.10;;;;;;;;;;10370047;28;20091;-52
2023/03/07 16:03:29;;;;;;;11.85;6.63;;;;;;;;;;10368774;28;20026;-53
2023/03/07 16:08:30;;;;;;;8.55;6.10;;;;;;;;;;10369408;28;20438;-52
2023/03/07 16:13:42;;;;;;;7.88;5.68;;;;;;;;;;10368890;28;20029;-49
2023/03/07 16:18:43;;;;;;;6.43;5.50;;;;;;;;;;10367940;28;20033;-53
2023/03/07 16:23:45;;;;;;;8.95;6.63;;;;;;;;;;10369012;28;20488;-53
2023/03/07 16:28:46;;;;;;;7.85;5.72;;;;;;;;;;10368209;28;20072;-56
2023/03/07 16:33:47;;;;;;;7.25;5.63;;;;;;;;;;10368277;28;20057;-59
2023/03/07 16:38:48;;;;;;;7.45;5.78;;;;;;;;;;10369223;28;20084;-57
2023/03/07 16:43:56;;;;;;;9.23;6.10;;;;;;;;;;10368145;28;20548;-58
2023/03/07 16:48:57;;;;;;;7.97;6.43;;;;;;;;;;10366828;28;20056;-54
2023/03/07 16:53:58;;;;;;;6.95;5.25;;;;;;;;;;10368131;28;20091;-57
2023/03/07 16:59:00;;;;;;;6.63;5.25;;;;;;;;;;10367732;28;20061;-57
2023/03/07 17:04:00;;;;;;;8.93;5.97;;;;;;;;;;10367655;28;20026;-57
2023/03/07 17:09:01;;;;;;;8.95;5.53;;;;;;;;;;10367608;28;20462;-55
2023/03/07 17:14:07;;;;;;;11.35;5.63;;;;;;;;;;10367170;28;20096;-58
2023/03/07 17:19:23;;;;;;;10.10;5.63;;;;;;;;;;10366519;28;20026;-57
2023/03/07 17:24:26;;;;;;;8.27;5.68;;;;;;;;;;10365397;28;20033;-58
2023/03/07 17:29:40;;;;;;;6.00;5.18;;;;;;;;;;10367347;28;20024;-51
2023/03/07 17:34:41;;;;;;;9.07;5.50;;;;;;;;;;10365578;28;20033;-53
2023/03/07 17:39:44;;;;;;;7.75;4.82;;;;;;;;;;10366987;28;20489;-51
2023/03/07 17:44:44;;;;;;;6.50;4.63;;;;;;;;;;10374574;28;20053;-53
2023/03/07 17:49:46;;;;;;;6.60;5.30;;;;;;;;;;10374363;28;20048;-53
2023/03/07 17:54:47;;;;;;;7.70;5.60;;;;;;;;;;10374407;28;20053;-56
2023/03/07 17:59:48;;;;;;;7.93;5.28;;;;;;;;;;10373792;28;20095;-56
2023/03/07 18:04:50;;;;;;;9.32;5.65;;;;;;;;;;10373815;28;20029;-55
2023/03/07 18:09:50;;;;;;;6.72;4.70;;;;;;;;;;10373656;28;20381;-58
2023/03/07 18:14:51;;;;;;;9.02;5.28;;;;;;;;;;10373367;28;20037;-58
2023/03/07 18:19:52;;;;;;;7.18;5.15;;;;;;;;;;10373674;28;20037;-55
2023/03/07 18:24:52;;;;;;;8.15;4.85;;;;;;;;;;10372893;28;20042;-54
2023/03/07 18:29:53;;;;;;;7.60;5.47;;;;;;;;;;10372199;28;20405;-58
2023/03/07 18:34:53;;;;;;;7.65;5.18;;;;;;;;;;10372298;28;20026;-52
2023/03/07 18:39:54;;;;;;;7.60;4.72;;;;;;;;;;10372459;28;20036;-55
2023/03/07 18:44:54;;;;;;;11.10;5.32;;;;;;;;;;10371885;28;20137;-54
2023/03/07 18:49:56;;;;;;;6.30;5.35;;;;;;;;;;10371527;28;20069;-53
2023/03/07 18:54:57;;;;;;;9.77;5.10;;;;;;;;;;10370513;28;20401;-55
2023/03/07 18:59:57;;;;;;;7.95;5.60;;;;;;;;;;10372369;28;20041;-53
2023/03/07 19:04:58;;;;;;;8.40;5.63;;;;;;;;;;10371339;28;20492;-53
2023/03/07 19:09:58;;;;;;;8.63;5.43;;;;;;;;;;10371346;28;20029;-53
2023/03/07 19:14:59;;;;;;;8.57;5.55;;;;;;;;;;10370631;28;20509;-57
2023/03/07 19:20:00;;;;;;;8.93;5.38;;;;;;;;;;10368476;28;20499;-55
2023/03/07 19:25:01;;;;;;;11.38;5.47;;;;;;;;;;10370801;28;20034;-55
2023/03/07 19:30:04;;;;;;;10.35;5.72;;;;;;;;;;10371547;28;20108;-55
2023/03/07 19:35:06;;;;;;;8.15;5.40;;;;;;;;;;10370837;28;20121;-58
2023/03/07 19:40:07;;;;;;;10.40;6.05;;;;;;;;;;10370112;28;20466;-56
2023/03/07 19:45:09;;;;;;;7.97;5.50;;;;;;;;;;10370751;28;20049;-54
2023/03/07 19:50:10;;;;;;;6.72;5.07;;;;;;;;;;10368988;28;20092;-54
2023/03/07 19:55:11;;;;;;;10.80;5.35;;;;;;;;;;10369412;28;20112;-57
2023/03/07 20:00:12;;;;;;;8.27;5.40;;;;;;;;;;10368054;28;20403;-56
2023/03/07 20:05:13;;;;;;;11.70;4.70;;;;;;;;;;10369510;28;20037;-57
2023/03/07 20:10:13;;;;;;;15.65;6.30;;;;;;;;;;10368760;28;20377;-59
2023/03/07 20:15:14;;;;;;;27.08;7.43;;;;;;;;;;10367564;28;20034;-57
2023/03/07 20:20:15;;;;;;;15.57;6.50;;;;;;;;;;10332675;28;20478;-55
2023/03/07 20:25:16;;;;;;;14.15;6.35;;;;;;;;;;10368097;28;20437;-57
2023/03/07 20:30:18;;;;;;;15.40;6.15;;;;;;;;;;10368654;28;20272;-57
2023/03/07 20:35:19;;;;;;;11.13;5.70;;;;;;;;;;10368344;28;20078;-57
2023/03/07 20:40:21;;;;;;;15.50;6.00;;;;;;;;;;10350798;28;20088;-56
2023/03/07 20:45:21;;;;;;;15.32;5.93;;;;;;;;;;10367579;28;20080;-59
2023/03/07 20:50:22;;;;;;;11.68;5.38;;;;;;;;;;10350819;28;20045;-58
2023/03/07 20:55:25;;;;;;;11.55;5.75;;;;;;;;;;10350276;28;20041;-57
2023/03/07 21:00:25;;;;;;;12.25;5.03;;;;;;;;;;10383163;28;20030;-59
2023/03/07 21:05:28;;;;;;;11.05;5.03;;;;;;;;;;10383342;28;20466;-59
2023/03/07 21:10:29;;;;;;;9.50;4.72;;;;;;;;;;10367206;28;20458;-58
2023/03/07 21:15:29;;;;;;;12.25;5.40;;;;;;;;;;10368842;28;20029;-57
2023/03/07 21:20:30;;;;;;;12.00;5.40;;;;;;;;;;10375602;28;20022;-57
2023/03/07 21:25:30;;;;;;;13.15;5.65;;;;;;;;;;10375506;28;20412;-59
2023/03/07 21:30:31;;;;;;;10.00;5.53;;;;;;;;;;10374121;28;20022;-59
2023/03/07 21:35:37;;;;;;;7.93;4.75;;;;;;;;;;10375038;28;20052;-59
2023/03/07 21:40:40;;;;;;;9.85;5.40;;;;;;;;;;10375083;28;20481;-59
2023/03/07 21:45:41;;;;;;;8.52;5.20;;;;;;;;;;10374337;28;20117;-56
2023/03/07 21:50:48;;;;;;;9.50;4.60;;;;;;;;;;10374961;28;20120;-59
2023/03/07 21:55:59;;;;;;;10.80;5.07;;;;;;;;;;10374080;28;20034;-50
2023/03/07 22:00:59;;;;;;;13.07;5.15;;;;;;;;;;10374989;28;20057;-54
2023/03/07 22:06:06;;;;;;;12.93;5.13;;;;;;;;;;10374188;28;20164;-51
2023/03/07 22:11:08;;;;;;;16.40;5.22;;;;;;;;;;10373862;28;20172;-53
2023/03/07 22:16:16;;;;;;;11.93;4.75;;;;;;;;;;10356355;28;20022;-57
2023/03/07 22:21:17;;;;;;;8.60;5.05;;;;;;;;;;10373889;28;20028;-56
2023/03/07 22:26:17;;;;;;;9.95;4.60;;;;;;;;;;10372438;28;20068;-57
2023/03/07 22:31:18;;;;;;;6.85;4.10;;;;;;;;;;10372646;28;20038;-57
2023/03/07 22:36:19;;;;;;;9.65;5.45;;;;;;;;;;10372881;28;20030;-57
2023/03/07 22:41:21;;;;;;;10.02;4.32;;;;;;;;;;10372860;28;20036;-57
2023/03/07 22:46:21;;;;;;;7.53;4.40;;;;;;;;;;10371667;28;20261;-58
2023/03/07 22:51:24;;;;;;;9.60;4.93;;;;;;;;;;10371524;28;20249;-58
2023/03/07 22:56:26;;;;;;;5.45;3.80;;;;;;;;;;10371276;28;20022;-58
2023/03/07 23:01:28;;;;;;;7.28;4.32;;;;;;;;;;10371474;28;20026;-57
2023/03/07 23:06:30;;;;;;;10.18;4.50;;;;;;;;;;10371395;28;20034;-58
2023/03/07 23:11:32;;;;;;;10.75;4.85;;;;;;;;;;10370950;28;20049;-58
2023/03/07 23:16:35;;;;;;;6.97;4.18;;;;;;;;;;10371707;28;20124;-58
2023/03/07 23:21:35;;;;;;;7.78;4.53;;;;;;;;;;10370941;28;20410;-58
2023/03/07 23:26:37;;;;;;;5.45;3.85;;;;;;;;;;10371253;28;20034;-58
2023/03/07 23:31:39;;;;;;;9.15;5.07;;;;;;;;;;10370543;28;20030;-59
2023/03/07 23:36:40;;;;;;;5.75;4.45;;;;;;;;;;10370910;28;20113;-58
2023/03/07 23:41:41;;;;;;;7.95;4.93;;;;;;;;;;10369813;28;20133;-59
2023/03/07 23:46:41;;;;;;;7.45;4.35;;;;;;;;;;10369895;28;20093;-59
2023/03/07 23:51:43;;;;;;;7.10;4.85;;;;;;;;;;10369762;28;20483;-60
2023/03/07 23:56:43;;;;;;;6.82;4.82;;;;;;;;;;10369583;28;20018;-58
